sensor_id;sensor_type;location;lat;lon;timestamp;temperature;humidity
3069;DHT22;1545;51.728;8.796;2023-04-01T00:01:54;10.30;93.20
3069;DHT22;1545;51.728;8.796;2023-04-01T00:04:20;10.20;93.40
3069;DHT22;1545;51.728;8.796;2023-04-01T00:06:46;10.20;93.30
3069;DHT22;1545;51.728;8.796;2023-04-01T00:09:13;10.20;93.40
3069;DHT22;1545;51.728;8.796;2023-04-01T00:11:38;10.20;93.70
3069;DHT22;1545;51.728;8.796;2023-04-01T00:14:05;10.20;93.60
3069;DHT22;1545;51.728;8.796;2023-04-01T00:16:30;10.20;93.50
3069;DHT22;1545;51.728;8.796;2023-04-01T00:18:56;10.20;93.70
3069;DHT22;1545;51.728;8.796;2023-04-01T00:21:22;10.20;93.60
3069;DHT22;1545;51.728;8.796;2023-04-01T00:23:49;10.30;93.70
3069;DHT22;1545;51.728;8.796;2023-04-01T00:26:15;10.20;93.40
3069;DHT22;1545;51.728;8.796;2023-04-01T00:28:44;10.20;93.60
3069;DHT22;1545;51.728;8.796;2023-04-01T00:31:10;10.20;93.60
3069;DHT22;1545;51.728;8.796;2023-04-01T00:33:36;10.20;93.60
3069;DHT22;1545;51.728;8.796;2023-04-01T00:38:35;10.20;93.50
3069;DHT22;1545;51.728;8.796;2023-04-01T00:41:01;10.20;93.40
3069;DHT22;1545;51.728;8.796;2023-04-01T00:43:26;10.10;93.20
3069;DHT22;1545;51.728;8.796;2023-04-01T00:45:52;10.10;93.30
3069;DHT22;1545;51.728;8.796;2023-04-01T00:48:20;10.20;93.40
3069;DHT22;1545;51.728;8.796;2023-04-01T00:50:54;10.10;93.10
3069;DHT22;1545;51.728;8.796;2023-04-01T00:53:22;10.10;93.10
3069;DHT22;1545;51.728;8.796;2023-04-01T00:56:05;10.10;93.20
3069;DHT22;1545;51.728;8.796;2023-04-01T00:58:35;10.10;93.20
3069;DHT22;1545;51.728;8.796;2023-04-01T01:01:02;10.20;93.10
3069;DHT22;1545;51.728;8.796;2023-04-01T01:03:28;10.10;93.10
3069;DHT22;1545;51.728;8.796;2023-04-01T01:06:11;10.10;93.30
3069;DHT22;1545;51.728;8.796;2023-04-01T01:11:25;10.10;92.60
3069;DHT22;1545;51.728;8.796;2023-04-01T01:14:02;10.20;92.30
3069;DHT22;1545;51.728;8.796;2023-04-01T01:16:38;10.20;92.50
3069;DHT22;1545;51.728;8.796;2023-04-01T01:27:41;10.20;91.60
3069;DHT22;1545;51.728;8.796;2023-04-01T01:30:21;10.20;91.30
3069;DHT22;1545;51.728;8.796;2023-04-01T01:35:24;10.40;91.00
3069;DHT22;1545;51.728;8.796;2023-04-01T01:37:55;10.40;90.80
3069;DHT22;1545;51.728;8.796;2023-04-01T01:40:22;10.40;91.00
3069;DHT22;1545;51.728;8.796;2023-04-01T01:42:51;10.40;90.90
3069;DHT22;1545;51.728;8.796;2023-04-01T01:45:19;10.30;91.50
3069;DHT22;1545;51.728;8.796;2023-04-01T01:47:46;10.20;91.80
3069;DHT22;1545;51.728;8.796;2023-04-01T01:50:12;10.20;92.20
3069;DHT22;1545;51.728;8.796;2023-04-01T01:52:39;10.10;92.30
3069;DHT22;1545;51.728;8.796;2023-04-01T01:55:31;10.10;92.60
3069;DHT22;1545;51.728;8.796;2023-04-01T01:58:33;10.00;93.00
3069;DHT22;1545;51.728;8.796;2023-04-01T02:01:08;10.00;93.20
3069;DHT22;1545;51.728;8.796;2023-04-01T02:03:36;10.00;93.60
3069;DHT22;1545;51.728;8.796;2023-04-01T02:06:05;9.90;93.80
3069;DHT22;1545;51.728;8.796;2023-04-01T02:09:05;9.90;94.30
3069;DHT22;1545;51.728;8.796;2023-04-01T02:16:43;9.80;94.50
3069;DHT22;1545;51.728;8.796;2023-04-01T02:19:12;9.80;94.50
3069;DHT22;1545;51.728;8.796;2023-04-01T02:21:39;9.80;94.50
3069;DHT22;1545;51.728;8.796;2023-04-01T02:24:10;9.80;94.30
3069;DHT22;1545;51.728;8.796;2023-04-01T02:26:37;9.80;94.20
3069;DHT22;1545;51.728;8.796;2023-04-01T02:29:05;9.80;94.20
3069;DHT22;1545;51.728;8.796;2023-04-01T02:31:31;9.80;94.10
3069;DHT22;1545;51.728;8.796;2023-04-01T02:33:57;9.80;94.00
3069;DHT22;1545;51.728;8.796;2023-04-01T02:36:23;9.80;94.00
3069;DHT22;1545;51.728;8.796;2023-04-01T02:38:49;9.90;94.20
3069;DHT22;1545;51.728;8.796;2023-04-01T02:41:16;9.90;94.10
3069;DHT22;1545;51.728;8.796;2023-04-01T02:43:42;9.80;94.30
3069;DHT22;1545;51.728;8.796;2023-04-01T02:46:07;9.80;94.30
3069;DHT22;1545;51.728;8.796;2023-04-01T02:48:33;9.80;93.80
3069;DHT22;1545;51.728;8.796;2023-04-01T02:50:59;9.80;94.00
3069;DHT22;1545;51.728;8.796;2023-04-01T02:53:24;9.80;93.80
3069;DHT22;1545;51.728;8.796;2023-04-01T02:55:50;9.90;93.60
3069;DHT22;1545;51.728;8.796;2023-04-01T02:58:17;9.80;93.80
3069;DHT22;1545;51.728;8.796;2023-04-01T03:00:43;9.90;93.60
3069;DHT22;1545;51.728;8.796;2023-04-01T03:03:09;9.90;93.50
3069;DHT22;1545;51.728;8.796;2023-04-01T03:05:35;9.90;93.30
3069;DHT22;1545;51.728;8.796;2023-04-01T03:08:01;9.90;93.20
3069;DHT22;1545;51.728;8.796;2023-04-01T03:10:26;9.90;93.20
3069;DHT22;1545;51.728;8.796;2023-04-01T03:12:52;9.90;93.30
3069;DHT22;1545;51.728;8.796;2023-04-01T03:15:17;9.90;93.40
3069;DHT22;1545;51.728;8.796;2023-04-01T03:17:43;9.90;93.30
3069;DHT22;1545;51.728;8.796;2023-04-01T03:20:10;9.90;93.20
3069;DHT22;1545;51.728;8.796;2023-04-01T03:22:36;9.90;93.20
3069;DHT22;1545;51.728;8.796;2023-04-01T03:25:03;9.90;93.40
3069;DHT22;1545;51.728;8.796;2023-04-01T03:27:29;9.90;93.30
3069;DHT22;1545;51.728;8.796;2023-04-01T03:29:57;9.90;93.40
3069;DHT22;1545;51.728;8.796;2023-04-01T03:32:23;9.90;93.30
3069;DHT22;1545;51.728;8.796;2023-04-01T03:34:48;9.90;93.10
3069;DHT22;1545;51.728;8.796;2023-04-01T03:37:14;9.90;93.40
3069;DHT22;1545;51.728;8.796;2023-04-01T03:39:39;9.90;93.50
3069;DHT22;1545;51.728;8.796;2023-04-01T03:42:05;9.90;93.80
3069;DHT22;1545;51.728;8.796;2023-04-01T03:44:32;9.80;94.10
3069;DHT22;1545;51.728;8.796;2023-04-01T03:46:58;9.80;94.30
3069;DHT22;1545;51.728;8.796;2023-04-01T03:49:23;9.80;94.40
3069;DHT22;1545;51.728;8.796;2023-04-01T03:51:49;9.80;94.30
3069;DHT22;1545;51.728;8.796;2023-04-01T03:54:15;9.80;94.40
3069;DHT22;1545;51.728;8.796;2023-04-01T03:56:40;9.80;94.30
3069;DHT22;1545;51.728;8.796;2023-04-01T03:59:07;9.80;94.20
3069;DHT22;1545;51.728;8.796;2023-04-01T04:01:33;9.80;94.60
3069;DHT22;1545;51.728;8.796;2023-04-01T04:03:58;9.80;94.70
3069;DHT22;1545;51.728;8.796;2023-04-01T04:06:24;9.80;94.90
3069;DHT22;1545;51.728;8.796;2023-04-01T04:08:50;9.70;95.20
3069;DHT22;1545;51.728;8.796;2023-04-01T04:11:16;9.70;95.60
3069;DHT22;1545;51.728;8.796;2023-04-01T04:13:42;9.70;95.90
3069;DHT22;1545;51.728;8.796;2023-04-01T04:16:08;9.60;96.10
3069;DHT22;1545;51.728;8.796;2023-04-01T04:18:34;9.60;96.50
3069;DHT22;1545;51.728;8.796;2023-04-01T04:20:59;9.60;96.40
3069;DHT22;1545;51.728;8.796;2023-04-01T04:23:25;9.60;96.40
3069;DHT22;1545;51.728;8.796;2023-04-01T04:28:24;9.50;96.50
3069;DHT22;1545;51.728;8.796;2023-04-01T04:30:50;9.50;96.50
3069;DHT22;1545;51.728;8.796;2023-04-01T04:33:16;9.50;96.60
3069;DHT22;1545;51.728;8.796;2023-04-01T04:35:41;9.50;96.70
3069;DHT22;1545;51.728;8.796;2023-04-01T04:38:07;9.50;96.80
3069;DHT22;1545;51.728;8.796;2023-04-01T04:40:32;9.50;97.00
3069;DHT22;1545;51.728;8.796;2023-04-01T04:42:58;9.50;97.20
3069;DHT22;1545;51.728;8.796;2023-04-01T04:45:23;9.40;97.50
3069;DHT22;1545;51.728;8.796;2023-04-01T04:47:49;9.40;97.80
3069;DHT22;1545;51.728;8.796;2023-04-01T04:50:14;9.40;97.80
3069;DHT22;1545;51.728;8.796;2023-04-01T04:52:40;9.40;97.50
3069;DHT22;1545;51.728;8.796;2023-04-01T04:55:06;9.30;97.50
3069;DHT22;1545;51.728;8.796;2023-04-01T04:57:31;9.30;97.80
3069;DHT22;1545;51.728;8.796;2023-04-01T04:59:57;9.40;97.80
3069;DHT22;1545;51.728;8.796;2023-04-01T05:02:22;9.30;97.90
3069;DHT22;1545;51.728;8.796;2023-04-01T05:04:48;9.30;97.80
3069;DHT22;1545;51.728;8.796;2023-04-01T05:07:13;9.30;97.90
3069;DHT22;1545;51.728;8.796;2023-04-01T05:09:39;9.30;98.00
3069;DHT22;1545;51.728;8.796;2023-04-01T05:12:04;9.30;98.30
3069;DHT22;1545;51.728;8.796;2023-04-01T05:14:30;9.30;98.40
3069;DHT22;1545;51.728;8.796;2023-04-01T05:16:56;9.30;98.60
3069;DHT22;1545;51.728;8.796;2023-04-01T05:19:21;9.20;98.70
3069;DHT22;1545;51.728;8.796;2023-04-01T05:21:46;9.30;98.50
3069;DHT22;1545;51.728;8.796;2023-04-01T05:24:13;9.30;98.60
3069;DHT22;1545;51.728;8.796;2023-04-01T05:26:38;9.30;98.30
3069;DHT22;1545;51.728;8.796;2023-04-01T05:29:04;9.20;98.10
3069;DHT22;1545;51.728;8.796;2023-04-01T05:31:30;9.20;98.20
3069;DHT22;1545;51.728;8.796;2023-04-01T05:33:56;9.20;98.10
3069;DHT22;1545;51.728;8.796;2023-04-01T05:36:22;9.20;98.10
3069;DHT22;1545;51.728;8.796;2023-04-01T05:38:47;9.30;98.10
3069;DHT22;1545;51.728;8.796;2023-04-01T05:41:14;9.30;97.80
3069;DHT22;1545;51.728;8.796;2023-04-01T05:43:41;9.30;97.60
3069;DHT22;1545;51.728;8.796;2023-04-01T05:46:07;9.30;97.40
3069;DHT22;1545;51.728;8.796;2023-04-01T05:48:33;9.40;97.30
3069;DHT22;1545;51.728;8.796;2023-04-01T05:51:00;9.40;96.80
3069;DHT22;1545;51.728;8.796;2023-04-01T05:53:25;9.50;96.50
3069;DHT22;1545;51.728;8.796;2023-04-01T05:55:51;9.50;96.30
3069;DHT22;1545;51.728;8.796;2023-04-01T05:58:16;9.60;96.00
3069;DHT22;1545;51.728;8.796;2023-04-01T06:00:42;9.70;96.00
3069;DHT22;1545;51.728;8.796;2023-04-01T06:03:08;9.90;95.90
3069;DHT22;1545;51.728;8.796;2023-04-01T06:05:51;9.90;95.00
3069;DHT22;1545;51.728;8.796;2023-04-01T06:08:18;10.10;94.50
3069;DHT22;1545;51.728;8.796;2023-04-01T06:11:23;10.10;94.40
3069;DHT22;1545;51.728;8.796;2023-04-01T06:14:19;10.10;94.10
3069;DHT22;1545;51.728;8.796;2023-04-01T06:22:27;10.20;93.70
3069;DHT22;1545;51.728;8.796;2023-04-01T06:25:24;10.10;94.40
3069;DHT22;1545;51.728;8.796;2023-04-01T06:28:10;10.10;95.10
3069;DHT22;1545;51.728;8.796;2023-04-01T06:30:47;9.90;95.60
3069;DHT22;1545;51.728;8.796;2023-04-01T06:33:23;10.00;95.90
3069;DHT22;1545;51.728;8.796;2023-04-01T06:46:54;10.20;95.30
3069;DHT22;1545;51.728;8.796;2023-04-01T06:54:58;10.30;96.60
3069;DHT22;1545;51.728;8.796;2023-04-01T06:57:35;10.20;96.80
3069;DHT22;1545;51.728;8.796;2023-04-01T07:00:13;10.30;97.00
3069;DHT22;1545;51.728;8.796;2023-04-01T07:02:43;10.30;97.20
3069;DHT22;1545;51.728;8.796;2023-04-01T07:05:11;10.30;97.00
3069;DHT22;1545;51.728;8.796;2023-04-01T07:07:43;10.40;96.90
3069;DHT22;1545;51.728;8.796;2023-04-01T07:10:15;10.40;96.20
3069;DHT22;1545;51.728;8.796;2023-04-01T07:13:30;10.40;96.20
3069;DHT22;1545;51.728;8.796;2023-04-01T07:16:23;10.40;95.60
3069;DHT22;1545;51.728;8.796;2023-04-01T07:19:02;10.50;95.20
3069;DHT22;1545;51.728;8.796;2023-04-01T07:21:36;10.60;95.50
3069;DHT22;1545;51.728;8.796;2023-04-01T07:24:32;10.80;95.00
3069;DHT22;1545;51.728;8.796;2023-04-01T07:26:59;10.90;94.80
3069;DHT22;1545;51.728;8.796;2023-04-01T07:29:25;10.90;94.40
3069;DHT22;1545;51.728;8.796;2023-04-01T07:32:12;11.10;94.50
3069;DHT22;1545;51.728;8.796;2023-04-01T07:34:49;11.30;94.00
3069;DHT22;1545;51.728;8.796;2023-04-01T07:40:28;11.50;92.90
3069;DHT22;1545;51.728;8.796;2023-04-01T07:45:47;11.60;92.60
3069;DHT22;1545;51.728;8.796;2023-04-01T07:48:24;11.70;92.40
3069;DHT22;1545;51.728;8.796;2023-04-01T07:54:01;11.70;91.60
3069;DHT22;1545;51.728;8.796;2023-04-01T07:56:50;11.80;91.50
3069;DHT22;1545;51.728;8.796;2023-04-01T08:02:14;12.10;90.30
3069;DHT22;1545;51.728;8.796;2023-04-01T08:05:10;12.10;90.10
3069;DHT22;1545;51.728;8.796;2023-04-01T08:10:40;12.30;89.50
3069;DHT22;1545;51.728;8.796;2023-04-01T08:16:20;12.20;89.80
3069;DHT22;1545;51.728;8.796;2023-04-01T08:18:53;12.20;89.60
3069;DHT22;1545;51.728;8.796;2023-04-01T08:21:27;12.20;89.90
3069;DHT22;1545;51.728;8.796;2023-04-01T08:23:57;12.10;90.50
3069;DHT22;1545;51.728;8.796;2023-04-01T08:26:38;12.30;90.10
3069;DHT22;1545;51.728;8.796;2023-04-01T08:34:38;12.60;89.10
3069;DHT22;1545;51.728;8.796;2023-04-01T08:37:17;12.70;88.40
3069;DHT22;1545;51.728;8.796;2023-04-01T08:39:48;12.70;87.40
3069;DHT22;1545;51.728;8.796;2023-04-01T08:45:18;12.80;87.40
3069;DHT22;1545;51.728;8.796;2023-04-01T08:51:06;12.80;87.10
3069;DHT22;1545;51.728;8.796;2023-04-01T08:54:02;12.80;86.70
3069;DHT22;1545;51.728;8.796;2023-04-01T08:59:15;12.70;87.00
3069;DHT22;1545;51.728;8.796;2023-04-01T09:04:42;12.70;87.50
3069;DHT22;1545;51.728;8.796;2023-04-01T09:16:39;13.10;86.50
3069;DHT22;1545;51.728;8.796;2023-04-01T09:22:09;13.60;86.20
3069;DHT22;1545;51.728;8.796;2023-04-01T09:27:53;14.20;84.20
3069;DHT22;1545;51.728;8.796;2023-04-01T09:31:11;14.40;83.00
3069;DHT22;1545;51.728;8.796;2023-04-01T09:36:33;14.90;81.70
3069;DHT22;1545;51.728;8.796;2023-04-01T09:42:08;14.50;80.60
3069;DHT22;1545;51.728;8.796;2023-04-01T09:47:35;14.20;84.80
3069;DHT22;1545;51.728;8.796;2023-04-01T09:52:59;14.20;85.40
3069;DHT22;1545;51.728;8.796;2023-04-01T09:56:15;14.20;85.50
3069;DHT22;1545;51.728;8.796;2023-04-01T09:59:19;14.30;84.10
3069;DHT22;1545;51.728;8.796;2023-04-01T10:07:47;15.30;83.00
3069;DHT22;1545;51.728;8.796;2023-04-01T10:13:56;15.40;81.90
3069;DHT22;1545;51.728;8.796;2023-04-01T10:16:59;15.30;81.90
3069;DHT22;1545;51.728;8.796;2023-04-01T10:19:50;15.20;82.60
3069;DHT22;1545;51.728;8.796;2023-04-01T10:25:18;14.90;82.80
3069;DHT22;1545;51.728;8.796;2023-04-01T10:36:40;14.80;84.30
3069;DHT22;1545;51.728;8.796;2023-04-01T10:45:13;15.20;83.80
3069;DHT22;1545;51.728;8.796;2023-04-01T10:48:23;15.20;83.10
3069;DHT22;1545;51.728;8.796;2023-04-01T10:51:12;15.20;83.90
3069;DHT22;1545;51.728;8.796;2023-04-01T10:56:50;15.50;82.30
3069;DHT22;1545;51.728;8.796;2023-04-01T11:00:00;15.60;83.30
3069;DHT22;1545;51.728;8.796;2023-04-01T11:17:24;15.50;82.60
3069;DHT22;1545;51.728;8.796;2023-04-01T11:19:51;15.20;84.10
3069;DHT22;1545;51.728;8.796;2023-04-01T11:31:03;14.30;86.50
3069;DHT22;1545;51.728;8.796;2023-04-01T11:39:27;13.90;88.70
3069;DHT22;1545;51.728;8.796;2023-04-01T11:42:06;13.80;89.40
3069;DHT22;1545;51.728;8.796;2023-04-01T11:44:40;13.80;89.90
3069;DHT22;1545;51.728;8.796;2023-04-01T11:58:45;14.80;88.40
3069;DHT22;1545;51.728;8.796;2023-04-01T12:01:23;14.70;88.00
3069;DHT22;1545;51.728;8.796;2023-04-01T12:06:53;14.80;87.20
3069;DHT22;1545;51.728;8.796;2023-04-01T12:27:20;14.30;88.90
3069;DHT22;1545;51.728;8.796;2023-04-01T12:38:15;13.70;88.50
3069;DHT22;1545;51.728;8.796;2023-04-01T12:46:19;13.20;92.20
3069;DHT22;1545;51.728;8.796;2023-04-01T12:51:50;13.20;92.00
3069;DHT22;1545;51.728;8.796;2023-04-01T13:05:24;13.40;93.40
3069;DHT22;1545;51.728;8.796;2023-04-01T13:16:14;13.90;92.00
3069;DHT22;1545;51.728;8.796;2023-04-01T13:18:55;13.80;92.00
3069;DHT22;1545;51.728;8.796;2023-04-01T13:27:14;14.20;92.20
3069;DHT22;1545;51.728;8.796;2023-04-01T13:30:18;14.30;91.40
3069;DHT22;1545;51.728;8.796;2023-04-01T13:38:12;14.40;90.40
3069;DHT22;1545;51.728;8.796;2023-04-01T13:43:25;14.40;90.20
3069;DHT22;1545;51.728;8.796;2023-04-01T13:49:13;14.30;90.30
3069;DHT22;1545;51.728;8.796;2023-04-01T13:51:49;13.80;88.90
3069;DHT22;1545;51.728;8.796;2023-04-01T13:59:56;13.70;90.50
3069;DHT22;1545;51.728;8.796;2023-04-01T14:02:50;13.80;90.80
3069;DHT22;1545;51.728;8.796;2023-04-01T14:05:36;14.00;92.40
3069;DHT22;1545;51.728;8.796;2023-04-01T14:11:13;14.30;91.10
3069;DHT22;1545;51.728;8.796;2023-04-01T14:14:11;14.60;89.40
3069;DHT22;1545;51.728;8.796;2023-04-01T14:19:52;14.80;85.80
3069;DHT22;1545;51.728;8.796;2023-04-01T14:22:34;14.80;86.80
3069;DHT22;1545;51.728;8.796;2023-04-01T14:28:25;14.90;86.50
3069;DHT22;1545;51.728;8.796;2023-04-01T14:31:08;14.90;85.30
3069;DHT22;1545;51.728;8.796;2023-04-01T14:33:41;14.80;85.20
3069;DHT22;1545;51.728;8.796;2023-04-01T14:39:33;14.80;86.60
3069;DHT22;1545;51.728;8.796;2023-04-01T14:50:40;13.90;88.40
3069;DHT22;1545;51.728;8.796;2023-04-01T14:55:56;13.40;90.70
3069;DHT22;1545;51.728;8.796;2023-04-01T14:59:07;13.30;91.00
3069;DHT22;1545;51.728;8.796;2023-04-01T15:04:18;13.10;92.30
3069;DHT22;1545;51.728;8.796;2023-04-01T15:07:11;13.00;93.10
3069;DHT22;1545;51.728;8.796;2023-04-01T15:12:30;12.50;94.40
3069;DHT22;1545;51.728;8.796;2023-04-01T15:15:10;12.30;95.20
3069;DHT22;1545;51.728;8.796;2023-04-01T15:18:13;12.30;96.50
3069;DHT22;1545;51.728;8.796;2023-04-01T15:26:42;12.30;97.80
3069;DHT22;1545;51.728;8.796;2023-04-01T15:32:23;12.60;97.80
3069;DHT22;1545;51.728;8.796;2023-04-01T15:35:14;12.70;97.80
3069;DHT22;1545;51.728;8.796;2023-04-01T15:40:29;12.90;97.50
3069;DHT22;1545;51.728;8.796;2023-04-01T15:56:51;13.10;95.90
3069;DHT22;1545;51.728;8.796;2023-04-01T16:04:55;13.00;96.40
3069;DHT22;1545;51.728;8.796;2023-04-01T16:07:48;12.80;95.50
3069;DHT22;1545;51.728;8.796;2023-04-01T16:10:29;12.80;96.10
3069;DHT22;1545;51.728;8.796;2023-04-01T16:16:07;12.70;96.20
3069;DHT22;1545;51.728;8.796;2023-04-01T16:21:43;12.50;96.10
3069;DHT22;1545;51.728;8.796;2023-04-01T16:24:44;12.40;96.20
3069;DHT22;1545;51.728;8.796;2023-04-01T16:30:01;12.10;96.70
3069;DHT22;1545;51.728;8.796;2023-04-01T16:32:41;12.00;97.30
3069;DHT22;1545;51.728;8.796;2023-04-01T16:38:13;11.90;98.10
3069;DHT22;1545;51.728;8.796;2023-04-01T16:40:58;11.90;98.20
3069;DHT22;1545;51.728;8.796;2023-04-01T16:46:18;11.80;98.40
3069;DHT22;1545;51.728;8.796;2023-04-01T16:49:03;11.70;98.80
3069;DHT22;1545;51.728;8.796;2023-04-01T16:51:53;11.70;98.70
3069;DHT22;1545;51.728;8.796;2023-04-01T16:54:40;11.70;98.80
3069;DHT22;1545;51.728;8.796;2023-04-01T16:59:53;11.80;98.80
3069;DHT22;1545;51.728;8.796;2023-04-01T17:02:28;11.70;98.80
3069;DHT22;1545;51.728;8.796;2023-04-01T17:05:01;11.70;98.80
3069;DHT22;1545;51.728;8.796;2023-04-01T17:13:28;11.50;98.80
3069;DHT22;1545;51.728;8.796;2023-04-01T17:21:29;11.20;98.80
3069;DHT22;1545;51.728;8.796;2023-04-01T17:24:29;11.20;98.80
3069;DHT22;1545;51.728;8.796;2023-04-01T17:27:18;11.10;98.80
3069;DHT22;1545;51.728;8.796;2023-04-01T17:32:39;11.20;98.80
3069;DHT22;1545;51.728;8.796;2023-04-01T17:35:17;11.10;98.80
3069;DHT22;1545;51.728;8.796;2023-04-01T17:38:17;10.90;98.80
3069;DHT22;1545;51.728;8.796;2023-04-01T17:41:04;10.50;98.80
3069;DHT22;1545;51.728;8.796;2023-04-01T17:43:52;10.30;98.80
3069;DHT22;1545;51.728;8.796;2023-04-01T17:46:47;10.20;98.80
3069;DHT22;1545;51.728;8.796;2023-04-01T17:57:43;9.80;98.80
3069;DHT22;1545;51.728;8.796;2023-04-01T18:00:38;9.90;98.80
3069;DHT22;1545;51.728;8.796;2023-04-01T18:06:14;9.90;98.80
3069;DHT22;1545;51.728;8.796;2023-04-01T18:09:09;10.10;98.80
3069;DHT22;1545;51.728;8.796;2023-04-01T18:11:54;10.10;98.80
3069;DHT22;1545;51.728;8.796;2023-04-01T18:14:49;10.10;98.80
3069;DHT22;1545;51.728;8.796;2023-04-01T18:17:24;10.00;98.80
3069;DHT22;1545;51.728;8.796;2023-04-01T18:20:14;9.90;98.80
3069;DHT22;1545;51.728;8.796;2023-04-01T18:22:48;9.90;98.80
3069;DHT22;1545;51.728;8.796;2023-04-01T18:25:34;9.80;98.80
3069;DHT22;1545;51.728;8.796;2023-04-01T18:28:14;9.70;98.80
3069;DHT22;1545;51.728;8.796;2023-04-01T18:30:44;9.70;98.80
3069;DHT22;1545;51.728;8.796;2023-04-01T18:36:21;9.70;98.80
3069;DHT22;1545;51.728;8.796;2023-04-01T18:39:03;9.60;98.80
3069;DHT22;1545;51.728;8.796;2023-04-01T18:41:40;9.70;98.80
3069;DHT22;1545;51.728;8.796;2023-04-01T18:44:36;9.70;98.80
3069;DHT22;1545;51.728;8.796;2023-04-01T18:50:14;9.80;98.80
3069;DHT22;1545;51.728;8.796;2023-04-01T18:52:44;9.80;98.80
3069;DHT22;1545;51.728;8.796;2023-04-01T18:57:50;9.80;98.80
3069;DHT22;1545;51.728;8.796;2023-04-01T19:00:28;9.80;98.80
3069;DHT22;1545;51.728;8.796;2023-04-01T19:03:00;9.80;98.80
3069;DHT22;1545;51.728;8.796;2023-04-01T19:05:33;9.80;98.80
3069;DHT22;1545;51.728;8.796;2023-04-01T19:08:22;9.80;98.80
3069;DHT22;1545;51.728;8.796;2023-04-01T19:11:18;9.80;98.80
3069;DHT22;1545;51.728;8.796;2023-04-01T19:14:10;9.60;98.80
3069;DHT22;1545;51.728;8.796;2023-04-01T19:16:43;9.50;98.80
3069;DHT22;1545;51.728;8.796;2023-04-01T19:19:23;9.50;98.80
3069;DHT22;1545;51.728;8.796;2023-04-01T19:27:42;8.90;98.80
3069;DHT22;1545;51.728;8.796;2023-04-01T19:33:25;8.70;98.80
3069;DHT22;1545;51.728;8.796;2023-04-01T19:38:40;8.50;98.80
3069;DHT22;1545;51.728;8.796;2023-04-01T19:41:38;8.50;98.80
3069;DHT22;1545;51.728;8.796;2023-04-01T19:47:39;8.40;98.80
3069;DHT22;1545;51.728;8.796;2023-04-01T19:52:58;8.30;98.80
3069;DHT22;1545;51.728;8.796;2023-04-01T19:55:40;8.30;98.80
3069;DHT22;1545;51.728;8.796;2023-04-01T20:00:56;8.20;98.80
3069;DHT22;1545;51.728;8.796;2023-04-01T20:03:42;8.20;98.80
3069;DHT22;1545;51.728;8.796;2023-04-01T20:09:44;8.00;98.80
3069;DHT22;1545;51.728;8.796;2023-04-01T20:12:28;8.00;98.80
3069;DHT22;1545;51.728;8.796;2023-04-01T20:15:02;7.90;98.80
3069;DHT22;1545;51.728;8.796;2023-04-01T20:28:13;7.70;98.80
3069;DHT22;1545;51.728;8.796;2023-04-01T20:33:45;7.70;98.80
3069;DHT22;1545;51.728;8.796;2023-04-01T20:39:13;7.60;98.80
3069;DHT22;1545;51.728;8.796;2023-04-01T20:48:04;7.50;98.80
3069;DHT22;1545;51.728;8.796;2023-04-01T20:50:47;7.50;98.80
3069;DHT22;1545;51.728;8.796;2023-04-01T20:56:44;7.50;98.80
3069;DHT22;1545;51.728;8.796;2023-04-01T20:59:25;7.50;98.80
3069;DHT22;1545;51.728;8.796;2023-04-01T21:02:20;7.40;98.80
3069;DHT22;1545;51.728;8.796;2023-04-01T21:07:58;7.30;98.80
3069;DHT22;1545;51.728;8.796;2023-04-01T21:10:43;7.20;98.80
3069;DHT22;1545;51.728;8.796;2023-04-01T21:22:05;7.10;98.80
3069;DHT22;1545;51.728;8.796;2023-04-01T21:27:52;7.00;98.80
3069;DHT22;1545;51.728;8.796;2023-04-01T21:30:38;6.90;98.80
3069;DHT22;1545;51.728;8.796;2023-04-01T21:36:30;6.90;98.80
3069;DHT22;1545;51.728;8.796;2023-04-01T21:42:01;6.80;98.80
3069;DHT22;1545;51.728;8.796;2023-04-01T21:50:14;6.70;98.80
3069;DHT22;1545;51.728;8.796;2023-04-01T22:07:59;6.60;98.80
3069;DHT22;1545;51.728;8.796;2023-04-01T22:13:26;6.60;98.80
3069;DHT22;1545;51.728;8.796;2023-04-01T22:16:08;6.50;98.80
3069;DHT22;1545;51.728;8.796;2023-04-01T22:18:55;6.50;98.80
3069;DHT22;1545;51.728;8.796;2023-04-01T22:32:31;6.30;98.80
3069;DHT22;1545;51.728;8.796;2023-04-01T22:38:21;6.20;98.80
3069;DHT22;1545;51.728;8.796;2023-04-01T22:43:40;6.10;98.80
3069;DHT22;1545;51.728;8.796;2023-04-01T22:52:01;5.90;98.80
3069;DHT22;1545;51.728;8.796;2023-04-01T22:54:48;5.90;98.80
3069;DHT22;1545;51.728;8.796;2023-04-01T23:02:59;5.80;98.80
3069;DHT22;1545;51.728;8.796;2023-04-01T23:05:26;5.80;98.80
3069;DHT22;1545;51.728;8.796;2023-04-01T23:10:52;5.60;98.80
3069;DHT22;1545;51.728;8.796;2023-04-01T23:13:31;5.60;98.80
3069;DHT22;1545;51.728;8.796;2023-04-01T23:15:57;5.60;98.80
3069;DHT22;1545;51.728;8.796;2023-04-01T23:21:16;5.50;98.80
3069;DHT22;1545;51.728;8.796;2023-04-01T23:24:21;5.50;98.80
3069;DHT22;1545;51.728;8.796;2023-04-01T23:27:12;5.50;98.80
3069;DHT22;1545;51.728;8.796;2023-04-01T23:29:41;5.40;98.80
3069;DHT22;1545;51.728;8.796;2023-04-01T23:32:25;5.40;98.80
3069;DHT22;1545;51.728;8.796;2023-04-01T23:34:59;5.40;98.80
3069;DHT22;1545;51.728;8.796;2023-04-01T23:37:26;5.40;98.80
3069;DHT22;1545;51.728;8.796;2023-04-01T23:39:56;5.30;98.80
3069;DHT22;1545;51.728;8.796;2023-04-01T23:42:26;5.30;98.80
3069;DHT22;1545;51.728;8.796;2023-04-01T23:44:55;5.30;98.80
3069;DHT22;1545;51.728;8.796;2023-04-01T23:47:24;5.30;98.80
3069;DHT22;1545;51.728;8.796;2023-04-01T23:49:58;5.30;98.80
3069;DHT22;1545;51.728;8.796;2023-04-01T23:52:48;5.30;98.80
3069;DHT22;1545;51.728;8.796;2023-04-01T23:55:27;5.20;98.80
